Lincolnshire, South Carolina
Current Conditions -  °F | °C
As of 10:53 AM on Sunday 21 Dec 2014 (Local Time) from KCUB Reporting Station
Overcast Overcast  
Wind Chill: 46°   Ceiling: 7000
Heat Index: 48°   Visibility: 10mi
Dew Point: 35°   Wind: 5mph
Humidity: 61%   Direction: NA
Pressure: 30.29"   Gusts: NA
Location:  34.1179°N, 81.0612°W
Report Text: KCUB 211553Z AUTO VRB04KT 10SM BKN070 OVC095 09/02 A3029 RMK AO2 SLP256 T00890017
Loading
Personal Weather Stations






























Interactive Weather Map New forecast layout! Learn more

10-Day Weather Forecast

Advertisements
Track Severe Weather on mobile